Updated29/06/2022 11:45 
 

GeoURL
free counters
Scottish Weather Network UK Weather Network Cumulus Top Weather Sites

Peebles Weather - Nearby METAR Reports

Raw Data, Raw Data Expanded


Daytime temperatures are in direct sunlight so may be higher than official air temperature values.
As with any other website, we log your IP address and browser type in the server logs for diagnostic reasons. Cookies are used to record visit time and gauges preferences. No personal information is stored or processed.

All times are in local time (GMT, or BST in summer) unless specified.

2022/06/29 10:20 EGPH 291020Z 15008KT 120V190 9999 -RA FEW019 BKN046 16/13 Q1007
15.1°C 0.6 mm 0.9 mm 1.5 mm 1.3 mph 2.2 mph 1008.7 hPa 80% X-Ray Solar Flare Level
Planetary K-Index
Planetary K-Index History
Station Warn Rain Snow Flood Wind Ltng Heat Cold Glob Moon Temp Rain 1h Rain Wed Rain 24h Wind 10m Gust Pressure Hum Proton Levels

m New moon Cool F1-SSW F: A: Kp:0 SSN:0

METAR Reports

 

EGPH - Edinburgh Airpor, United Kingdom
Distance from station: NNW 22mi, 36km
Updated: 29/06/2022 11:20
Light rain, Mostly cloudy
Light rain, Mostly cloudy
 Wind from SSE
Wind: SSE 9 mph , 15 km/h
Temperature: 16°C
Dew Point: 13°C
Humidity: 83%
Barometer: 1007 hPa
Summary: Light rain
Clouds: Mostly cloudy
Visibility: 6 miles , 10 km
Cloud details: Few Clouds 579 m
Mostly cloudy 1402 m
2022/06/29 10:20 EGPH 291020Z 15008KT 120V190 9999 -RA FEW019 BKN046 16/13 Q1007
EGOM - Spadeadam, United Kingdom
Distance from station: SSE 49mi, 79km
Updated: 29/06/2022 11:20

 Wind from SSW
Wind: SSW 13 mph , 20 km/h
Visibility: 6 miles , 10 km
2022/06/29 10:20 EGOM 291020Z AUTO 20011KT 9999 RERA ///////// 14/// Q////
 
EGNC - Carlisle, United Kingdom
Distance from station: SSE 51mi, 82km
Updated: 27/03/2020 14:50
NOT Current
Mostly cloudy
Mostly cloudy
 Wind from ENE
Wind: ENE 9 mph , 15 km/h
Temperature: 11°C
Dew Point: 4°C
Humidity: 62%
Barometer: 1029 hPa
Clouds: Mostly cloudy
Visibility: 6 miles , 9 km
Cloud details: Few Clouds 1067 m
Mostly cloudy 1372 m
2020/03/27 14:50 EGNC 271450Z 07008KT 050V110 9000 FEW035 BKN045 11/04 Q1029
EGPF - Glasgow Airport, United Kingdom
Distance from station: WNW 51mi, 82km
Updated: 29/06/2022 11:20
Thunderstorm
Thunderstorm
 Wind from S
Wind: S 10 mph , 17 km/h
Temperature: 17°C
Dew Point: 13°C
Humidity: 77%
Barometer: 1007 hPa
Clouds: Thunderstorm
Visibility: 6 miles , 10 km
Cloud details: Few Clouds 671 m
Partly cloudy 823 m
Mostly cloudy 1097 m
2022/06/29 10:20 EGPF 291020Z AUTO 17009KT 9999 FEW022/// SCT027/// BKN036/// //////CB 17/13 Q1007
 
EGQL - Leuchars Raf, United Kingdom
Distance from station: NNE 53mi, 85km
Updated: 29/06/2022 11:20
Light rain, Mostly cloudy
Light rain, Mostly cloudy
 Wind from ESE
Wind: ESE 14 mph , 22 km/h
Temperature: 15°C
Dew Point: 13°C
Humidity: 88%
Barometer: 1007 hPa
Summary: Light rain
Clouds: Mostly cloudy
Visibility: 6 miles , 10 km
Cloud details: Mostly cloudy 305 m
Mostly cloudy 1768 m
Mostly cloudy 2347 m
2022/06/29 10:20 EGQL 291020Z AUTO 12012KT 9999 -RA BKN010/// BKN058/// BKN077/// 15/13 Q1007
EGPK - Prestwick(Civ/Na, United Kingdom
Distance from station: W 55mi, 89km
Updated: 29/06/2022 11:20
Partly cloudy
Partly cloudy
 Wind from S
Wind: S 17 mph , 28 km/h
Temperature: 18°C
Dew Point: 11°C
Humidity: 64%
Barometer: 1006 hPa
Clouds: Partly cloudy
Visibility: 6 miles , 10 km
Cloud details: Partly cloudy 732 m
2022/06/29 10:20 EGPK 291020Z 18015KT 9999 SCT024 18/11 Q1006
 
EGPN - Dundee/Riverside, United Kingdom
Distance from station: N 56mi, 90km
Updated: 29/06/2022 11:20
Partly cloudy
Partly cloudy
 Wind from E
Wind: E 8 mph , 13 km/h
Temperature: 16°C
Dew Point: 13°C
Humidity: 83%
Barometer: 1007 hPa
Clouds: Partly cloudy
Visibility: 6 miles , 10 km
Cloud details: Few Clouds 244 m
Partly cloudy 457 m
2022/06/29 10:20 EGPN 291020Z 09007KT 9999 FEW008 SCT015 16/13 Q1007
EGNT - Newcastle, United Kingdom
Distance from station: SE 72mi, 116km
Updated: 29/06/2022 11:20
Few Clouds
Few Clouds
 Wind from SSE
Wind: SSE 9 mph , 15 km/h
Temperature: 19°C
Dew Point: 12°C
Humidity: 64%
Barometer: 1008 hPa
Clouds: Few Clouds
Visibility: 6 miles , 10 km
Cloud details: Few Clouds 610 m
2022/06/29 10:20 EGNT 291020Z 16008KT 100V220 9999 FEW020 19/12 Q1008
 
EGNV - Tees-Side, United Kingdom
Distance from station: SE 104mi, 168km
Updated: 29/06/2022 11:20
Nearby showers, Partly cloudy
Nearby showers, Partly cloudy
 Wind from S
Wind: S 10 mph , 17 km/h
Temperature: 15°C
Dew Point: 12°C
Humidity: 82%
Barometer: 1009 hPa
Summary: Nearby Showers
Clouds: Partly cloudy
Visibility: 6 miles , 10 km
Cloud details: Partly cloudy 549 m
Partly cloudy 914 m
2022/06/29 10:20 EGNV 291020Z 17009KT 9999 VCSH SCT018 SCT030 15/12 Q1009
EGPD - Aberdeen/Dyce, United Kingdom
Distance from station: NNE 114mi, 183km
Updated: 29/06/2022 11:20
Overcast
Overcast
 Wind from SSE
Wind: SSE 16 mph , 26 km/h
Temperature: 14°C
Dew Point: 12°C
Humidity: 88%
Barometer: 1009 hPa
Clouds: Overcast
Visibility: 6 miles , 10 km
Cloud details: Mostly cloudy 152 m
Overcast 274 m
2022/06/29 10:20 EGPD 291020Z AUTO 16014KT 9999 BKN005 OVC009 14/12 Q1009
 
EGNS - Isle Of Man/Rona, United Kingdom
Distance from station: SSW 122mi, 197km
Updated: 29/06/2022 11:20
Few Clouds
Few Clouds
 Wind from SSW
Wind: SSW 14 mph , 22 km/h
Temperature: 16°C
Dew Point: 13°C
Humidity: 83%
Barometer: 1007 hPa
Clouds: Few Clouds
Visibility: 6 miles , 10 km
Cloud details: Few Clouds 244 m
2022/06/29 10:20 EGNS 291020Z 21012KT 9999 FEW008 16/13 Q1007 NOSIG
EGAC - Belfast Harbour, United Kingdom
Distance from station: WSW 128mi, 206km
Updated: 29/06/2022 11:20
Overcast
Overcast
 Wind from SSW
Wind: SSW 9 mph , 15 km/h
Temperature: 15°C
Dew Point: 11°C
Humidity: 77%
Barometer: 1006 hPa
Clouds: Overcast
Visibility: 6 miles , 10 km
Cloud details: Partly cloudy 549 m
Mostly cloudy 732 m
Overcast 945 m
2022/06/29 10:20 EGAC 291020Z AUTO 20008KT 160V230 9999 SCT018 BKN024 OVC031 15/11 Q1006
 
EGPE - Inverness/Dalcro, United Kingdom
Distance from station: NNW 134mi, 215km
Updated: 29/06/2022 11:20
Few Clouds
Few Clouds
 Wind from S
Wind: S 6 mph , 9 km/h
Temperature: 17°C
Dew Point: 10°C
Humidity: 64%
Barometer: 1006 hPa
Clouds: Few Clouds
Visibility: 6 miles , 10 km
Cloud details: Few Clouds 1219 m
2022/06/29 10:20 EGPE 291020Z 17005KT 150V210 9999 FEW040 17/10 Q1006
XHTML 1.1 | CSS